Ohrid Airport

Ohrid Airport (IATA: OHD, ICAO: LWOH) or Ohrid "St. Paul the Apostle" Airport, is an airport in Ohrid, (FYR) Macedonia. The airport is located 9 km (6 mi) from Ohrid and 145 km (2 hours by bus) from Skopje, along the Struga-Kicevo-Skopje motorway.

Runway details

RwyLengthCourseElevationILSILS freqILS FACGlidepath
01 8366ft / 2550 m 014° 2284ft Block32 109.1 014° 3.2°
19 9679ft / 2950 m 198° 2313ft Check32 Block32 Block32 3.0°

 

Charts for Ohrid Airprot (Source: Eurocontrol)
General Information Download
Aerodrome Chart Download
Aircraft Parking/Docking Chart Download
Standard Instrument Departure - Runway 01 Download
Standard Instrument Departure - Runway 19 (ACFT CAT A,B,C) Download
Standard Instrument Departure - Runway 19 (ACFT CAT D) Download
Standard Instrument Arrival Download
Instrument Approach - ILS 01 (ACFT CAT A,B,C) Download
Instrument Approach - ILS 01 (ACFT CAT D) Download
Instrument Approach - VOR 01 (ACFT CAT C) Download
Instrument Approach - VOR 01 (ACFT CAT A,B) Download
Instrument Approach - VOR 01 (ACFT CAT D) Download
Aerodrome Obstacle Chart A Download
All Charts in one Download
Scenery for Ohrid Airprot
FS2004, FSX, Prepard 3D (Payware - Ivano Marongiu) Download
FS2004 (AFCAD) Download
FSX (AFCAD) Download
FSX mesh-up Download
Useful documents
Pilot Breefing Download

Official website of Ohrid Airport...Click here

Latest weather information

[source: UHMR]
METAR
LWSK 222300Z 00000KT CAVOK 19/15 Q1018 NOSIG =
LWOH 222330Z 34003KT CAVOK 14/11 Q1021 =
TAF
TAF LWSK 222330Z 2300/2324 VRB02KT CAVOK =
TAF LWOH 222330Z 2300/2324 VRB02KT CAVOK =

София Дървен материал цени

София Дъски цена